createdAt,value
2022-11-05T00:00:33.164Z,33.10
2022-11-05T00:03:19.170Z,32.23
2022-11-05T00:06:07.036Z,30.30
2022-11-05T00:08:53.037Z,32.37
2022-11-05T00:11:41.298Z,29.93
2022-11-05T00:14:26.898Z,29.17
2022-11-05T00:16:56.241Z,32.30
2022-11-05T00:19:24.239Z,27.63
2022-11-05T00:22:09.588Z,30.80
2022-11-05T00:24:55.231Z,28.93
2022-11-05T00:27:23.320Z,26.30
2022-11-05T00:29:51.440Z,30.87
2022-11-05T00:32:20.928Z,31.70
2022-11-05T00:34:48.984Z,31.10
2022-11-05T00:37:17.065Z,29.00
2022-11-05T00:39:45.158Z,31.57
2022-11-05T00:42:30.658Z,32.87
2022-11-05T00:45:04.548Z,28.57
2022-11-05T00:47:48.747Z,28.10
2022-11-05T00:50:16.830Z,27.37
2022-11-05T00:52:56.991Z,31.10
2022-11-05T00:55:26.700Z,26.98
2022-11-05T00:57:55.249Z,26.93
2022-11-05T01:00:24.479Z,28.80
2022-11-05T01:02:54.014Z,24.70
2022-11-05T01:05:22.187Z,30.03
2022-11-05T01:07:50.294Z,29.33
2022-11-05T01:10:18.532Z,26.47
2022-11-05T01:12:46.601Z,24.40
2022-11-05T01:15:16.104Z,26.13
2022-11-05T01:17:44.201Z,24.37
2022-11-05T01:20:13.854Z,25.77
2022-11-05T01:22:42.006Z,24.60
2022-11-05T01:25:11.209Z,27.30
2022-11-05T01:27:41.241Z,26.47
2022-11-05T01:30:10.489Z,22.70
2022-11-05T01:32:38.796Z,24.47
2022-11-05T01:35:09.303Z,24.43
2022-11-05T01:37:39.472Z,22.40
2022-11-05T01:40:11.505Z,23.85
2022-11-05T01:42:39.794Z,25.57
2022-11-05T01:45:14.956Z,23.30
2022-11-05T01:47:51.159Z,22.40
2022-11-05T01:50:28.486Z,20.10
2022-11-05T01:53:03.979Z,20.90
2022-11-05T01:55:36.833Z,19.03
2022-11-05T01:58:08.397Z,22.87
2022-11-05T02:00:37.751Z,20.40
2022-11-05T02:03:06.075Z,20.67
2022-11-05T02:05:35.793Z,24.67
2022-11-05T02:08:05.795Z,18.73
2022-11-05T02:10:34.223Z,24.80
2022-11-05T02:13:03.712Z,18.57
2022-11-05T02:15:41.125Z,19.17
2022-11-05T02:18:21.361Z,18.03
2022-11-05T02:21:00.416Z,17.27
2022-11-05T02:23:55.114Z,20.83
2022-11-05T02:27:06.985Z,15.90
2022-11-05T02:30:08.775Z,16.70
2022-11-05T02:32:54.781Z,17.87
2022-11-05T02:35:37.012Z,13.70
2022-11-05T02:38:10.068Z,16.30
2022-11-05T02:40:50.607Z,15.13
2022-11-05T02:43:33.548Z,15.85
2022-11-05T02:46:11.710Z,12.07
2022-11-05T02:48:47.601Z,13.57
2022-11-05T02:51:24.575Z,13.73
2022-11-05T02:53:59.428Z,17.07
2022-11-05T02:56:32.227Z,13.03
2022-11-05T02:59:00.220Z,13.33
2022-11-05T03:01:28.298Z,14.60
2022-11-05T03:04:00.569Z,12.90
2022-11-05T03:07:09.244Z,12.80
2022-11-05T03:10:11.640Z,11.47
2022-11-05T03:12:48.522Z,13.67
2022-11-05T03:15:26.881Z,14.80
2022-11-05T03:18:03.401Z,10.73
2022-11-05T03:20:38.875Z,15.53
2022-11-05T03:23:13.610Z,12.23
2022-11-05T03:25:47.274Z,10.40
2022-11-05T03:28:18.625Z,10.40
2022-11-05T03:30:49.214Z,12.67
2022-11-05T03:33:22.379Z,10.00
2022-11-05T03:35:55.077Z,10.13
2022-11-05T03:38:28.054Z,10.87
2022-11-05T03:40:59.791Z,11.70
2022-11-05T03:43:33.997Z,9.73
2022-11-05T03:46:06.297Z,8.80
2022-11-05T03:48:39.896Z,8.33
2022-11-05T03:51:15.450Z,10.10
2022-11-05T03:53:47.808Z,10.03
2022-11-05T03:56:21.718Z,10.03
2022-11-05T03:58:54.675Z,14.43
2022-11-05T04:01:26.506Z,9.40
2022-11-05T04:03:54.650Z,11.47
2022-11-05T04:06:41.852Z,11.73
2022-11-05T04:09:29.445Z,11.30
2022-11-05T04:12:14.790Z,10.53
2022-11-05T04:14:42.908Z,8.57
2022-11-05T04:17:10.093Z,10.77
2022-11-05T04:19:57.017Z,9.93
2022-11-05T04:22:45.807Z,10.87
2022-11-05T04:25:14.540Z,10.70
2022-11-05T04:27:42.654Z,13.47
2022-11-05T04:30:21.950Z,16.73
2022-11-05T04:33:02.272Z,10.87
2022-11-05T04:35:31.852Z,10.90
2022-11-05T04:38:01.363Z,12.70
2022-11-05T04:40:29.790Z,9.60
2022-11-05T04:42:58.531Z,12.67
2022-11-05T04:45:28.364Z,10.87
2022-11-05T04:47:56.385Z,14.77
2022-11-05T04:50:25.247Z,14.70
2022-11-05T04:52:53.312Z,9.87
2022-11-05T04:55:22.869Z,8.77
2022-11-05T04:57:51.712Z,8.30
2022-11-05T05:00:21.403Z,8.80
2022-11-05T05:02:49.981Z,7.47
2022-11-05T05:05:18.192Z,11.33
2022-11-05T05:07:46.334Z,9.73
2022-11-05T05:10:14.305Z,16.03
2022-11-05T05:12:43.771Z,9.40
2022-11-05T05:15:12.140Z,10.37
2022-11-05T05:17:40.155Z,9.93
2022-11-05T05:20:26.137Z,9.63
2022-11-05T05:22:54.690Z,7.67
2022-11-05T05:25:23.635Z,9.23
2022-11-05T05:27:53.061Z,6.23
2022-11-05T05:30:21.092Z,10.77
2022-11-05T05:32:49.068Z,10.20
2022-11-05T05:35:17.543Z,7.37
2022-11-05T05:37:45.597Z,13.30
2022-11-05T05:40:13.704Z,8.57
2022-11-05T05:42:43.413Z,7.77
2022-11-05T05:45:13.857Z,11.23
2022-11-05T05:47:42.936Z,8.53
2022-11-05T05:50:11.002Z,7.93
2022-11-05T05:52:39.097Z,10.47
2022-11-05T05:55:07.800Z,11.93
2022-11-05T05:57:36.153Z,6.90
2022-11-05T06:00:06.354Z,9.67
2022-11-05T06:02:41.730Z,7.97
2022-11-05T06:05:11.130Z,7.05
2022-11-05T06:07:39.279Z,7.77
2022-11-05T06:10:08.138Z,11.67
2022-11-05T06:12:36.154Z,7.87
2022-11-05T06:15:04.923Z,7.27
2022-11-05T06:17:34.246Z,8.07
2022-11-05T06:20:03.828Z,6.40
2022-11-05T06:22:32.361Z,6.77
2022-11-05T06:25:00.388Z,11.43
2022-11-05T06:27:29.650Z,9.17
2022-11-05T06:30:00.348Z,4.90
2022-11-05T06:32:28.692Z,8.13
2022-11-05T06:34:56.704Z,7.17
2022-11-05T06:37:27.793Z,6.43
2022-11-05T06:39:57.175Z,20.58
2022-11-05T06:42:25.558Z,11.27
2022-11-05T06:44:54.171Z,5.90
2022-11-05T06:47:22.432Z,4.73
2022-11-05T06:49:50.698Z,5.87
2022-11-05T06:52:19.332Z,5.57
2022-11-05T06:54:48.895Z,6.20
2022-11-05T06:57:16.924Z,5.03
2022-11-05T06:59:45.139Z,4.73
2022-11-05T07:02:14.521Z,7.63
2022-11-05T07:04:42.620Z,6.30
2022-11-05T07:07:11.055Z,3.30
2022-11-05T07:09:42.976Z,8.10
2022-11-05T07:12:12.477Z,5.10
2022-11-05T07:14:40.468Z,4.93
2022-11-05T07:17:08.604Z,4.83
2022-11-05T07:19:36.626Z,7.10
2022-11-05T07:22:04.693Z,7.97
2022-11-05T07:24:32.713Z,6.87
2022-11-05T07:27:00.690Z,5.87
2022-11-05T07:29:30.104Z,5.97
2022-11-05T07:31:58.484Z,7.33
2022-11-05T07:34:26.541Z,6.60
2022-11-05T07:36:54.560Z,9.93
2022-11-05T07:39:22.912Z,8.70
2022-11-05T07:41:53.245Z,8.20
2022-11-05T07:44:21.200Z,9.27
2022-11-05T07:46:50.766Z,5.70
2022-11-05T07:49:19.451Z,3.63
2022-11-05T07:51:47.590Z,8.43
2022-11-05T07:54:15.656Z,6.60
2022-11-05T07:56:43.696Z,8.37
2022-11-05T07:59:11.698Z,7.77
2022-11-05T08:01:40.429Z,8.03
2022-11-05T08:04:09.952Z,7.73
2022-11-05T08:06:38.056Z,10.47
2022-11-05T08:09:06.187Z,6.77
2022-11-05T08:11:35.834Z,5.10
2022-11-05T08:14:03.890Z,5.40
2022-11-05T08:16:32.021Z,10.77
2022-11-05T08:19:00.040Z,6.50
2022-11-05T08:21:29.435Z,8.43
2022-11-05T08:23:57.465Z,7.27
2022-11-05T08:26:25.544Z,5.17
2022-11-05T08:28:53.965Z,6.00
2022-11-05T08:31:22.032Z,5.87
2022-11-05T08:33:50.610Z,5.97
2022-11-05T08:36:18.636Z,5.40
2022-11-05T08:38:48.101Z,6.40
2022-11-05T08:41:16.152Z,6.83
2022-11-05T08:43:44.160Z,7.73
2022-11-05T08:46:12.208Z,5.03
2022-11-05T08:48:40.266Z,4.80
2022-11-05T08:51:08.347Z,3.63
2022-11-05T08:53:36.891Z,8.57
2022-11-05T08:56:06.972Z,6.33
2022-11-05T08:58:35.676Z,8.18
2022-11-05T09:01:05.855Z,10.83
2022-11-05T09:03:33.949Z,7.53
2022-11-05T09:06:02.130Z,8.63
2022-11-05T09:08:30.464Z,6.50
2022-11-05T09:10:58.677Z,6.43
2022-11-05T09:13:28.541Z,3.83
2022-11-05T09:15:59.018Z,2.90
2022-11-05T09:18:30.183Z,4.20
2022-11-05T09:20:58.832Z,9.47
2022-11-05T09:23:26.868Z,10.90
2022-11-05T09:25:55.018Z,9.60
2022-11-05T09:28:24.577Z,6.50
2022-11-05T09:30:54.358Z,5.70
2022-11-05T09:33:25.541Z,7.90
2022-11-05T09:36:00.651Z,7.27
2022-11-05T09:38:29.618Z,8.27
2022-11-05T09:41:00.928Z,4.87
2022-11-05T09:43:35.153Z,4.70
2022-11-05T09:46:12.743Z,6.13
2022-11-05T09:48:44.611Z,7.13
2022-11-05T09:51:23.406Z,9.47
2022-11-05T09:53:53.669Z,4.93
2022-11-05T09:56:26.223Z,7.80
2022-11-05T09:58:59.289Z,7.93
2022-11-05T10:01:34.356Z,6.20
2022-11-05T10:04:07.899Z,7.20
2022-11-05T10:06:49.634Z,7.13
2022-11-05T10:09:25.226Z,5.67
2022-11-05T10:11:58.578Z,4.50
2022-11-05T10:14:29.965Z,7.10
2022-11-05T10:17:02.463Z,6.30
2022-11-05T10:19:40.676Z,4.00
2022-11-05T10:22:12.909Z,8.73
2022-11-05T10:24:43.751Z,7.17
2022-11-05T10:27:18.340Z,5.07
2022-11-05T10:29:47.446Z,4.27
2022-11-05T10:32:24.915Z,5.03
2022-11-05T10:34:55.428Z,6.50
2022-11-05T10:37:25.893Z,5.45
2022-11-05T10:39:58.395Z,5.15
2022-11-05T10:42:41.210Z,4.90
2022-11-05T10:45:22.863Z,6.35
2022-11-05T10:48:04.029Z,6.50
2022-11-05T10:50:32.587Z,8.25
2022-11-05T10:53:03.899Z,4.95
2022-11-05T10:55:36.133Z,3.50
2022-11-05T10:58:19.381Z,4.90
2022-11-05T11:01:03.140Z,4.00
2022-11-05T11:03:40.451Z,3.90
2022-11-05T11:06:19.727Z,3.80
2022-11-05T11:08:49.850Z,2.95
2022-11-05T11:11:29.350Z,5.55
2022-11-05T11:14:06.249Z,2.88
2022-11-05T11:16:40.315Z,7.15
2022-11-05T11:19:28.994Z,3.58
2022-11-05T11:22:17.609Z,2.78
2022-11-05T11:24:48.172Z,5.53
2022-11-05T11:27:22.213Z,5.85
2022-11-05T11:29:56.763Z,3.28
2022-11-05T11:32:28.686Z,3.67
2022-11-05T11:34:58.841Z,6.43
2022-11-05T11:37:30.081Z,4.85
2022-11-05T11:40:03.139Z,6.88
2022-11-05T11:42:34.836Z,4.13
2022-11-05T11:45:15.489Z,5.65
2022-11-05T11:47:46.026Z,7.80
2022-11-05T11:50:38.768Z,7.45
2022-11-05T11:53:22.624Z,8.63
2022-11-05T11:56:03.862Z,8.38
2022-11-05T11:58:43.813Z,7.75
2022-11-05T12:01:44.848Z,9.20
2022-11-05T12:04:27.310Z,4.32
2022-11-05T12:07:10.360Z,7.00
2022-11-05T12:09:57.708Z,9.63
2022-11-05T12:12:33.250Z,7.68
2022-11-05T12:15:13.398Z,4.93
2022-11-05T12:17:51.630Z,5.47
2022-11-05T12:20:40.348Z,7.78
2022-11-05T12:23:33.238Z,8.05
2022-11-05T12:26:12.690Z,10.20
2022-11-05T12:29:17.721Z,7.72
2022-11-05T12:31:56.930Z,10.27
2022-11-05T12:34:41.321Z,5.53
2022-11-05T12:37:20.916Z,8.55
2022-11-05T12:40:10.915Z,7.93
2022-11-05T12:42:52.735Z,9.30
2022-11-05T12:45:36.189Z,10.90
2022-11-05T12:48:30.318Z,6.20
2022-11-05T12:51:09.956Z,12.95
2022-11-05T12:53:57.606Z,9.85
2022-11-05T12:56:34.480Z,9.38
2022-11-05T12:59:07.246Z,12.95
2022-11-05T13:01:40.457Z,5.60
2022-11-05T13:04:18.172Z,7.57
2022-11-05T13:06:50.948Z,10.68
2022-11-05T13:09:24.154Z,8.70
2022-11-05T13:11:58.401Z,11.27
2022-11-05T13:14:30.203Z,10.13
2022-11-05T13:17:01.899Z,14.68
2022-11-05T13:19:36.101Z,14.43
2022-11-05T13:22:14.257Z,9.35
2022-11-05T13:24:49.477Z,7.40
2022-11-05T13:27:42.724Z,11.32
2022-11-05T13:30:16.655Z,13.07
2022-11-05T13:32:48.301Z,11.18
2022-11-05T13:35:23.514Z,12.65
2022-11-05T13:38:15.719Z,8.65
2022-11-05T13:40:55.478Z,14.40
2022-11-05T13:43:43.612Z,10.63
2022-11-05T13:46:26.518Z,8.65
2022-11-05T13:49:20.102Z,14.82
2022-11-05T13:51:52.627Z,9.35
2022-11-05T13:55:00.145Z,8.38
2022-11-05T13:58:05.636Z,11.07
2022-11-05T14:00:43.316Z,7.38
2022-11-05T14:03:18.647Z,8.60
2022-11-05T14:05:55.439Z,11.35
2022-11-05T14:08:29.241Z,5.63
2022-11-05T14:11:05.361Z,9.65
2022-11-05T14:13:37.077Z,10.48
2022-11-05T14:16:10.392Z,7.22
2022-11-05T14:18:44.982Z,11.57
2022-11-05T14:21:48.375Z,9.43
2022-11-05T14:24:27.127Z,10.70
2022-11-05T14:27:32.549Z,7.53
2022-11-05T14:30:02.027Z,10.13
2022-11-05T14:32:50.093Z,7.55
2022-11-05T14:35:39.709Z,9.60
2022-11-05T14:38:21.259Z,5.50
2022-11-05T14:40:50.511Z,9.50
2022-11-05T14:43:23.517Z,10.40
2022-11-05T14:45:57.216Z,9.23
2022-11-05T14:48:37.585Z,9.38
2022-11-05T14:51:25.714Z,16.20
2022-11-05T14:54:01.074Z,11.35
2022-11-05T14:56:29.365Z,12.90
2022-11-05T14:59:45.455Z,7.57
2022-11-05T15:02:18.600Z,12.75
2022-11-05T15:04:49.393Z,14.95
2022-11-05T15:07:41.233Z,10.95
2022-11-05T15:10:15.449Z,9.40
2022-11-05T15:12:46.894Z,8.65
2022-11-05T15:15:22.548Z,14.25
2022-11-05T15:18:01.366Z,8.90
2022-11-05T15:20:40.226Z,7.10
2022-11-05T15:23:15.754Z,8.68
2022-11-05T15:25:53.352Z,9.15
2022-11-05T15:28:31.683Z,7.80
2022-11-05T15:31:03.062Z,6.97
2022-11-05T15:33:32.755Z,7.80
2022-11-05T15:36:13.089Z,8.68
2022-11-05T15:38:56.642Z,9.13
2022-11-05T15:41:34.626Z,12.40
2022-11-05T15:44:03.152Z,10.38
2022-11-05T15:46:31.448Z,20.15
2022-11-05T15:49:03.183Z,9.63
2022-11-05T15:51:32.947Z,8.30
2022-11-05T15:54:31.954Z,8.55
2022-11-05T15:56:54.225Z,9.00
2022-11-05T15:59:26.512Z,11.10
2022-11-05T16:01:57.977Z,7.57
2022-11-05T16:04:28.891Z,5.13
2022-11-05T16:07:01.471Z,8.35
2022-11-05T16:09:31.720Z,6.93
2022-11-05T16:12:28.556Z,8.55
2022-11-05T16:15:04.448Z,4.43
2022-11-05T16:17:46.254Z,8.23
2022-11-05T16:20:23.729Z,6.80
2022-11-05T16:22:56.305Z,8.27
2022-11-05T16:25:31.987Z,6.70
2022-11-05T16:28:01.952Z,4.68
2022-11-05T16:30:30.635Z,5.65
2022-11-05T16:33:06.189Z,5.93
2022-11-05T16:35:34.806Z,9.18
2022-11-05T16:38:04.699Z,5.68
2022-11-05T16:40:32.812Z,9.73
2022-11-05T16:43:16.265Z,7.57
2022-11-05T16:45:44.414Z,6.13
2022-11-05T16:48:13.219Z,13.13
2022-11-05T16:50:42.244Z,7.90
2022-11-05T16:53:12.271Z,7.97
2022-11-05T16:55:43.629Z,5.37
2022-11-05T16:58:20.859Z,5.60
2022-11-05T17:00:50.257Z,5.38
2022-11-05T17:03:19.070Z,3.95
2022-11-05T17:05:47.848Z,8.38
2022-11-05T17:08:17.275Z,3.97
2022-11-05T17:10:45.855Z,1.67
2022-11-05T17:13:16.189Z,5.25
2022-11-05T17:15:46.446Z,5.60
2022-11-05T17:18:18.614Z,8.05
2022-11-05T17:20:49.412Z,7.13
2022-11-05T17:23:21.198Z,4.57
2022-11-05T17:25:51.826Z,5.57
2022-11-05T17:28:20.580Z,3.53
2022-11-05T17:30:53.022Z,4.95
2022-11-05T17:33:22.803Z,3.67
2022-11-05T17:35:52.142Z,6.00
2022-11-05T17:38:22.962Z,5.32
2022-11-05T17:40:51.600Z,9.50
2022-11-05T17:43:21.257Z,7.18
2022-11-05T17:45:51.959Z,7.05
2022-11-05T17:48:23.663Z,7.50
2022-11-05T17:50:52.178Z,7.47
2022-11-05T17:53:21.903Z,8.52
2022-11-05T17:55:50.233Z,7.47
2022-11-05T17:58:18.711Z,5.93
2022-11-05T18:00:48.874Z,9.32
2022-11-05T18:03:17.421Z,9.70
2022-11-05T18:05:48.299Z,10.52
2022-11-05T18:08:16.528Z,19.85
2022-11-05T18:10:46.350Z,14.10
2022-11-05T18:13:14.818Z,13.35
2022-11-05T18:15:43.705Z,14.10
2022-11-05T18:18:12.938Z,10.25
2022-11-05T18:20:43.241Z,9.75
2022-11-05T18:23:11.982Z,7.22
2022-11-05T18:25:41.999Z,10.15
2022-11-05T18:28:14.172Z,8.05
2022-11-05T18:30:42.991Z,11.75
2022-11-05T18:33:11.916Z,11.80
2022-11-05T18:35:44.303Z,13.85
2022-11-05T18:38:13.141Z,9.82
2022-11-05T18:40:41.518Z,13.63
2022-11-05T18:43:14.210Z,16.98
2022-11-05T18:45:42.797Z,20.90
2022-11-05T18:48:12.248Z,49.67
2022-11-05T18:50:41.355Z,28.67
2022-11-05T18:53:09.625Z,19.25
2022-11-05T18:55:39.883Z,12.35
2022-11-05T18:58:08.046Z,16.35
2022-11-05T19:00:40.111Z,23.42
2022-11-05T19:03:09.668Z,14.95
2022-11-05T19:05:37.978Z,17.88
2022-11-05T19:08:06.222Z,16.80
2022-11-05T19:10:34.422Z,13.30
2022-11-05T19:13:02.543Z,12.52
2022-11-05T19:15:30.834Z,11.10
2022-11-05T19:18:00.464Z,14.63
2022-11-05T19:20:31.338Z,14.30
2022-11-05T19:23:03.277Z,18.05
2022-11-05T19:25:31.327Z,15.70
2022-11-05T19:28:01.867Z,25.08
2022-11-05T19:30:30.280Z,16.38
2022-11-05T19:32:58.619Z,16.27
2022-11-05T19:35:36.934Z,14.45
2022-11-05T19:38:08.350Z,12.88
2022-11-05T19:40:38.661Z,15.85
2022-11-05T19:43:06.998Z,18.90
2022-11-05T19:45:50.583Z,15.55
2022-11-05T19:48:20.336Z,21.52
2022-11-05T19:50:50.223Z,22.27
2022-11-05T19:53:18.710Z,21.50
2022-11-05T19:55:48.054Z,23.25
2022-11-05T19:58:16.502Z,28.05
2022-11-05T20:00:45.129Z,36.47
2022-11-05T20:03:13.573Z,38.38
2022-11-05T20:05:42.026Z,29.25
2022-11-05T20:08:12.031Z,27.58
2022-11-05T20:10:40.391Z,26.47
2022-11-05T20:13:08.672Z,31.83
2022-11-05T20:15:39.330Z,26.65
2022-11-05T20:18:08.446Z,21.92
2022-11-05T20:20:37.007Z,22.38
2022-11-05T20:23:05.131Z,19.05
2022-11-05T20:25:36.970Z,17.33
2022-11-05T20:28:07.022Z,15.73
2022-11-05T20:30:35.818Z,13.80
2022-11-05T20:33:04.026Z,16.90
2022-11-05T20:35:32.316Z,16.80
2022-11-05T20:38:00.536Z,21.52
2022-11-05T20:40:28.603Z,17.67
2022-11-05T20:43:01.309Z,15.50
2022-11-05T20:45:29.527Z,18.33
2022-11-05T20:47:57.770Z,19.08
2022-11-05T20:50:25.750Z,20.45
2022-11-05T20:52:53.839Z,21.33
2022-11-05T20:55:24.854Z,18.77
2022-11-05T21:00:23.085Z,21.70
2022-11-05T21:02:54.570Z,25.48
2022-11-05T21:05:59.748Z,28.67
2022-11-05T21:08:30.543Z,32.38
2022-11-05T21:10:59.092Z,32.83
2022-11-05T21:13:27.910Z,33.20
2022-11-05T21:15:59.457Z,35.90
2022-11-05T21:18:30.454Z,40.50
2022-11-05T21:23:28.848Z,42.08
2022-11-05T21:25:57.118Z,43.53
2022-11-05T21:28:25.632Z,51.85
2022-11-05T21:30:53.825Z,51.00
2022-11-05T21:33:23.331Z,53.03
2022-11-05T21:35:51.542Z,49.72
2022-11-05T21:38:19.663Z,43.40
2022-11-05T21:40:48.381Z,45.13
2022-11-05T21:43:16.843Z,42.60
2022-11-05T21:45:46.235Z,40.47
2022-11-05T21:48:15.534Z,33.45
2022-11-05T21:51:02.999Z,31.75
2022-11-05T21:53:48.664Z,23.70
2022-11-05T21:56:40.593Z,24.80
2022-11-05T21:59:30.324Z,18.10
2022-11-05T22:02:04.761Z,15.70
2022-11-05T22:04:35.582Z,13.82
2022-11-05T22:07:06.037Z,11.70
2022-11-05T22:09:34.228Z,9.40
2022-11-05T22:12:03.158Z,8.70
2022-11-05T22:14:31.308Z,8.25
2022-11-05T22:16:59.805Z,8.52
2022-11-05T22:19:28.250Z,9.25
2022-11-05T22:21:56.517Z,9.10
2022-11-05T22:24:28.025Z,7.70
2022-11-05T22:26:56.138Z,9.18
2022-11-05T22:29:24.443Z,11.10
2022-11-05T22:31:52.850Z,14.52
2022-11-05T22:34:21.674Z,20.98
2022-11-05T22:36:50.097Z,13.80
2022-11-05T22:39:19.089Z,13.10
2022-11-05T22:41:49.201Z,11.88
2022-11-05T22:44:17.798Z,10.50
2022-11-05T22:46:46.121Z,13.45
2022-11-05T22:49:14.437Z,13.63
2022-11-05T22:51:42.864Z,13.75
2022-11-05T22:54:11.788Z,11.95
2022-11-05T22:56:42.104Z,10.38
2022-11-05T22:59:13.457Z,10.20
2022-11-05T23:01:42.222Z,6.93
2022-11-05T23:04:11.102Z,7.80
2022-11-05T23:06:56.648Z,9.15
2022-11-05T23:09:46.190Z,7.15
2022-11-05T23:12:23.140Z,8.88
2022-11-05T23:14:53.430Z,9.52
2022-11-05T23:17:39.311Z,8.77
2022-11-05T23:20:32.466Z,8.48
2022-11-05T23:23:18.000Z,7.15
2022-11-05T23:25:46.553Z,7.03
2022-11-05T23:28:15.530Z,5.32
2022-11-05T23:30:59.934Z,7.38
2022-11-05T23:33:28.869Z,6.10
2022-11-05T23:36:14.342Z,5.03
2022-11-05T23:38:42.459Z,7.25
2022-11-05T23:41:27.916Z,3.60
2022-11-05T23:44:13.687Z,3.83
2022-11-05T23:47:00.529Z,8.05
2022-11-05T23:49:28.659Z,4.28
2022-11-05T23:51:56.663Z,4.55
2022-11-05T23:54:25.166Z,3.78
2022-11-05T23:56:53.188Z,4.65
2022-11-05T23:59:21.393Z,3.30
